Terminal Aerodrome Forecast
Issued by NWS

Home | Current Version | Previous Version | Text Only | Print | Product List | Glossary On
Versions: 1 2 3 4 5 6 7 8 9 10 11 12 13 14 15 16 17 18 19 20 21 22
000
FTUS41 KBGM 182349
TAFITH
TAF
KITH 182349Z 1900/1924 16008KT P6SM BKN250
     FM191200 17015KT P6SM OVC035 WS020/19035KT
     FM191600 18015KT 4SM -RA BR OVC015 WS020/20035KT=

USA.gov is the U.S. government's official web portal to all federal, state and local government web resources and services.